createdAt,value
2018-08-17T00:01:57.927Z,25.67
2018-08-17T00:04:26.408Z,25.80
2018-08-17T00:07:03.860Z,23.97
2018-08-17T00:09:32.301Z,26.47
2018-08-17T00:12:03.900Z,25.87
2018-08-17T00:14:32.309Z,25.47
2018-08-17T00:17:06.493Z,23.43
2018-08-17T00:19:35.235Z,22.60
2018-08-17T00:22:09.693Z,26.67
2018-08-17T00:24:38.093Z,27.50
2018-08-17T00:27:11.833Z,23.30
2018-08-17T00:29:40.272Z,26.40
2018-08-17T00:32:13.468Z,24.50
2018-08-17T00:34:41.856Z,27.00
2018-08-17T00:37:15.063Z,24.47
2018-08-17T00:39:43.481Z,26.97
2018-08-17T00:42:16.560Z,23.27
2018-08-17T00:44:44.989Z,29.70
2018-08-17T00:49:46.772Z,31.30
2018-08-17T00:52:15.217Z,27.70
2018-08-17T00:54:43.679Z,26.07
2018-08-17T00:57:12.436Z,28.67
2018-08-17T00:59:41.000Z,31.10
2018-08-17T01:02:09.500Z,31.30
2018-08-17T01:04:38.192Z,32.60
2018-08-17T01:07:06.649Z,31.33
2018-08-17T01:09:35.069Z,31.03
2018-08-17T01:12:03.464Z,31.57
2018-08-17T01:14:33.611Z,31.60
2018-08-17T01:17:02.032Z,32.83
2018-08-17T01:19:35.133Z,29.23
2018-08-17T01:22:03.260Z,33.87
2018-08-17T01:24:34.507Z,30.43
2018-08-17T01:27:04.334Z,33.47
2018-08-17T01:29:32.756Z,40.40
2018-08-17T01:32:01.150Z,42.07
2018-08-17T01:34:29.564Z,41.23
2018-08-17T01:36:57.967Z,46.70
2018-08-17T01:39:26.653Z,43.93
2018-08-17T01:41:55.097Z,45.03
2018-08-17T01:44:23.481Z,52.97
2018-08-17T01:46:51.625Z,48.77
2018-08-17T01:49:20.095Z,52.90
2018-08-17T01:51:52.831Z,53.73
2018-08-17T01:54:20.988Z,51.17
2018-08-17T01:56:49.388Z,55.27
2018-08-17T01:59:18.080Z,54.80
2018-08-17T02:01:46.504Z,53.30
2018-08-17T02:04:14.903Z,55.93
2018-08-17T02:06:43.666Z,55.93
2018-08-17T02:09:12.737Z,51.97
2018-08-17T02:11:41.560Z,54.00
2018-08-17T02:14:10.252Z,52.87
2018-08-17T02:16:39.104Z,52.07
2018-08-17T02:19:10.977Z,49.73
2018-08-17T02:21:39.681Z,49.30
2018-08-17T02:24:13.453Z,50.20
2018-08-17T02:26:42.008Z,48.10
2018-08-17T02:29:15.385Z,45.77
2018-08-17T02:31:43.873Z,45.93
2018-08-17T02:34:17.269Z,45.87
2018-08-17T02:36:45.721Z,44.40
2018-08-17T02:39:19.256Z,44.70
2018-08-17T02:41:47.932Z,39.67
2018-08-17T02:44:21.046Z,35.93
2018-08-17T02:46:49.458Z,31.87
2018-08-17T02:49:23.239Z,35.70
2018-08-17T02:51:51.698Z,34.30
2018-08-17T02:54:25.141Z,32.90
2018-08-17T02:56:53.537Z,29.73
2018-08-17T03:01:54.648Z,27.27
2018-08-17T03:04:22.842Z,32.47
2018-08-17T03:06:50.955Z,24.60
2018-08-17T03:09:19.390Z,22.87
2018-08-17T03:14:12.304Z,21.00
2018-08-17T03:16:40.730Z,27.57
2018-08-17T03:19:09.268Z,24.93
2018-08-17T03:21:40.671Z,18.60
2018-08-17T03:24:08.866Z,22.50
2018-08-17T03:26:42.081Z,23.40
2018-08-17T03:29:10.195Z,22.50
2018-08-17T03:31:44.910Z,23.07
2018-08-17T03:34:13.322Z,19.83
2018-08-17T03:36:46.423Z,21.43
2018-08-17T03:39:14.533Z,17.33
2018-08-17T03:41:42.956Z,18.77
2018-08-17T03:44:11.045Z,20.77
2018-08-17T03:46:39.151Z,20.93
2018-08-17T03:49:07.587Z,20.03
2018-08-17T03:51:35.671Z,22.40
2018-08-17T03:54:03.792Z,19.07
2018-08-17T03:56:32.164Z,16.93
2018-08-17T03:59:00.282Z,17.80
2018-08-17T04:01:28.602Z,17.80
2018-08-17T04:04:09.758Z,14.17
2018-08-17T04:06:38.036Z,14.40
2018-08-17T04:09:06.947Z,18.33
2018-08-17T04:11:35.051Z,14.23
2018-08-17T04:14:08.750Z,16.93
2018-08-17T04:16:37.127Z,14.53
2018-08-17T04:21:37.821Z,13.20
2018-08-17T04:24:06.003Z,13.37
2018-08-17T04:26:34.144Z,14.50
2018-08-17T04:29:02.264Z,15.33
2018-08-17T04:33:59.151Z,11.90
2018-08-17T04:36:27.300Z,11.53
2018-08-17T04:38:55.664Z,9.10
2018-08-17T04:41:23.845Z,11.70
2018-08-17T04:43:52.056Z,10.47
2018-08-17T04:46:25.125Z,10.00
2018-08-17T04:48:53.224Z,9.27
2018-08-17T04:51:25.838Z,10.70
2018-08-17T04:53:54.220Z,14.47
2018-08-17T04:56:23.024Z,10.90
2018-08-17T04:58:53.088Z,11.20
2018-08-17T05:01:21.468Z,8.37
2018-08-17T05:03:49.607Z,12.73
2018-08-17T05:06:17.703Z,9.37
2018-08-17T05:08:46.308Z,10.13
2018-08-17T05:11:14.415Z,15.43
2018-08-17T05:13:42.549Z,11.77
2018-08-17T05:16:10.925Z,7.43
2018-08-17T05:18:40.786Z,8.10
2018-08-17T05:21:08.897Z,10.47
2018-08-17T05:23:37.356Z,11.93
2018-08-17T05:26:05.536Z,12.07
2018-08-17T05:28:33.939Z,11.57
2018-08-17T05:31:02.373Z,12.53
2018-08-17T05:33:30.487Z,11.93
2018-08-17T05:35:58.726Z,12.37
2018-08-17T05:38:27.419Z,16.67
2018-08-17T05:40:55.529Z,29.33
2018-08-17T05:43:23.789Z,20.40
2018-08-17T05:45:58.608Z,25.40
2018-08-17T05:48:26.696Z,15.60
2018-08-17T05:50:59.897Z,12.77
2018-08-17T05:53:28.508Z,14.40
2018-08-17T05:56:00.970Z,11.57
2018-08-17T05:58:29.088Z,12.00
2018-08-17T06:00:57.636Z,12.67
2018-08-17T06:03:25.803Z,9.37
2018-08-17T06:05:53.938Z,10.00
2018-08-17T06:08:22.549Z,8.70
2018-08-17T06:10:50.763Z,8.73
2018-08-17T06:13:18.864Z,5.97
2018-08-17T06:15:47.260Z,7.03
2018-08-17T06:18:16.782Z,6.97
2018-08-17T06:20:44.908Z,5.20
2018-08-17T06:23:18.177Z,4.23
2018-08-17T06:25:46.301Z,4.53
2018-08-17T06:28:20.681Z,4.23
2018-08-17T06:30:49.170Z,3.70
2018-08-17T06:33:21.817Z,5.87
2018-08-17T06:35:50.047Z,4.97
2018-08-17T06:40:52.524Z,6.67
2018-08-17T06:43:20.628Z,6.37
2018-08-17T06:45:49.020Z,9.17
2018-08-17T06:48:17.506Z,7.60
2018-08-17T06:50:45.759Z,8.73
2018-08-17T06:53:14.154Z,7.00
2018-08-17T06:55:42.890Z,7.50
2018-08-17T06:58:11.036Z,6.23
2018-08-17T07:00:39.426Z,6.43
2018-08-17T07:03:07.572Z,6.43
2018-08-17T07:05:39.704Z,12.37
2018-08-17T07:08:08.071Z,11.33
2018-08-17T07:10:41.102Z,7.90
2018-08-17T07:13:09.302Z,7.70
2018-08-17T07:15:37.757Z,8.47
2018-08-17T07:18:05.955Z,6.67
2018-08-17T07:20:34.138Z,7.00
2018-08-17T07:23:02.558Z,6.73
2018-08-17T07:25:30.677Z,5.50
2018-08-17T07:27:59.133Z,5.17
2018-08-17T07:30:27.596Z,7.73
2018-08-17T07:32:56.267Z,5.30
2018-08-17T07:35:24.391Z,7.53
2018-08-17T07:37:57.832Z,6.33
2018-08-17T07:40:25.944Z,7.33
2018-08-17T07:42:59.349Z,4.50
2018-08-17T07:45:27.755Z,5.50
2018-08-17T07:48:02.564Z,5.17
2018-08-17T07:50:30.576Z,5.33
2018-08-17T07:53:04.508Z,3.97
2018-08-17T07:55:32.972Z,6.17
2018-08-17T08:00:37.513Z,5.20
2018-08-17T08:03:23.336Z,4.77
2018-08-17T08:05:52.332Z,3.50
2018-08-17T08:08:20.995Z,4.70
2018-08-17T08:10:49.116Z,5.23
2018-08-17T08:13:17.722Z,6.03
2018-08-17T08:15:46.849Z,5.43
2018-08-17T08:18:19.151Z,5.43
2018-08-17T08:20:47.552Z,5.23
2018-08-17T08:23:28.844Z,3.20
2018-08-17T08:25:58.786Z,5.90
2018-08-17T08:28:27.020Z,3.90
2018-08-17T08:30:56.292Z,4.50
2018-08-17T08:33:26.202Z,4.33
2018-08-17T08:35:54.372Z,5.10
2018-08-17T08:38:27.602Z,7.27
2018-08-17T08:40:55.722Z,4.43
2018-08-17T08:43:29.723Z,4.03
2018-08-17T08:45:58.210Z,3.80
2018-08-17T08:48:33.149Z,4.73
2018-08-17T08:51:01.353Z,6.30
2018-08-17T08:53:34.427Z,5.73
2018-08-17T08:56:02.932Z,5.33
2018-08-17T08:58:36.249Z,5.43
2018-08-17T09:01:05.257Z,5.23
2018-08-17T09:03:42.058Z,5.37
2018-08-17T09:06:10.556Z,6.20
2018-08-17T09:08:44.339Z,6.93
2018-08-17T09:11:12.506Z,7.77
2018-08-17T09:13:45.599Z,8.07
2018-08-17T09:16:13.722Z,9.27
2018-08-17T09:18:48.175Z,8.03
2018-08-17T09:21:16.578Z,9.37
2018-08-17T09:23:50.350Z,11.20
2018-08-17T09:26:18.565Z,10.37
2018-08-17T09:28:53.052Z,11.60
2018-08-17T09:31:22.032Z,11.73
2018-08-17T09:33:56.095Z,11.80
2018-08-17T09:36:24.473Z,12.57
2018-08-17T09:38:58.068Z,10.37
2018-08-17T09:41:27.011Z,8.17
2018-08-17T09:44:05.345Z,9.20
2018-08-17T09:46:35.968Z,9.90
2018-08-17T09:49:05.343Z,11.50
2018-08-17T09:51:36.118Z,11.53
2018-08-17T09:54:07.496Z,11.57
2018-08-17T09:56:36.186Z,12.70
2018-08-17T09:59:09.747Z,12.63
2018-08-17T10:01:43.515Z,12.07
2018-08-17T10:04:20.064Z,12.83
2018-08-17T10:06:53.613Z,14.87
2018-08-17T10:09:26.730Z,13.30
2018-08-17T10:11:54.911Z,12.40
2018-08-17T10:14:23.091Z,11.70
2018-08-17T10:16:51.648Z,12.40
2018-08-17T10:19:22.218Z,12.37
2018-08-17T10:21:53.593Z,11.43
2018-08-17T10:24:24.944Z,12.83
2018-08-17T10:26:53.875Z,15.97
2018-08-17T10:29:24.109Z,13.53
2018-08-17T10:31:52.572Z,12.53
2018-08-17T10:34:25.445Z,10.73
2018-08-17T10:36:53.828Z,12.07
2018-08-17T10:41:56.279Z,13.57
2018-08-17T10:44:29.076Z,12.50
2018-08-17T10:46:57.652Z,12.70
2018-08-17T10:49:26.315Z,16.13
2018-08-17T10:51:55.772Z,14.50
2018-08-17T10:54:24.859Z,14.33
2018-08-17T10:56:53.913Z,14.00
2018-08-17T10:59:22.582Z,12.63
2018-08-17T11:01:51.373Z,14.20
2018-08-17T11:04:20.003Z,11.43
2018-08-17T11:06:48.185Z,14.67
2018-08-17T11:09:16.672Z,16.00
2018-08-17T11:11:46.210Z,17.57
2018-08-17T11:14:14.452Z,16.10
2018-08-17T11:16:48.230Z,18.87
2018-08-17T11:19:16.750Z,17.80
2018-08-17T11:21:50.340Z,15.33
2018-08-17T11:24:19.020Z,17.30
2018-08-17T11:26:54.200Z,16.23
2018-08-17T11:29:22.361Z,13.70
2018-08-17T11:31:55.631Z,16.70
2018-08-17T11:34:24.169Z,20.60
2018-08-17T11:36:57.292Z,16.97
2018-08-17T11:39:25.658Z,17.03
2018-08-17T11:41:58.899Z,17.63
2018-08-17T11:44:27.490Z,16.80
2018-08-17T11:49:30.548Z,16.13
2018-08-17T11:51:58.694Z,14.80
2018-08-17T11:54:27.055Z,14.27
2018-08-17T11:56:55.605Z,13.33
2018-08-17T11:59:24.062Z,18.53
2018-08-17T12:01:52.570Z,13.37
2018-08-17T12:04:20.730Z,12.00
2018-08-17T12:06:49.262Z,13.63
2018-08-17T12:09:17.718Z,13.90
2018-08-17T12:11:45.853Z,13.27
2018-08-17T12:14:18.440Z,11.80
2018-08-17T12:16:47.093Z,12.40
2018-08-17T12:19:21.819Z,13.27
2018-08-17T12:21:49.975Z,12.30
2018-08-17T12:24:23.420Z,11.73
2018-08-17T12:26:52.624Z,13.80
2018-08-17T12:29:26.763Z,12.30
2018-08-17T12:31:54.880Z,15.40
2018-08-17T12:34:28.211Z,13.60
2018-08-17T12:36:56.606Z,12.47
2018-08-17T12:39:31.380Z,11.47
2018-08-17T12:41:59.559Z,12.10
2018-08-17T12:44:34.416Z,11.57
2018-08-17T12:47:02.881Z,11.73
2018-08-17T12:49:35.875Z,10.70
2018-08-17T12:52:04.412Z,12.87
2018-08-17T12:54:37.099Z,12.30
2018-08-17T12:57:06.277Z,11.33
2018-08-17T12:59:39.655Z,12.87
2018-08-17T13:02:08.441Z,14.20
2018-08-17T13:04:41.825Z,10.83
2018-08-17T13:07:10.300Z,12.10
2018-08-17T13:09:38.734Z,11.90
2018-08-17T13:12:06.917Z,13.67
2018-08-17T13:14:35.433Z,10.30
2018-08-17T13:17:04.114Z,12.17
2018-08-17T13:19:32.271Z,10.10
2018-08-17T13:22:00.464Z,8.43
2018-08-17T13:24:29.205Z,9.90
2018-08-17T13:26:58.961Z,11.03
2018-08-17T13:29:27.076Z,11.10
2018-08-17T13:32:01.077Z,11.47
2018-08-17T13:34:29.916Z,12.00
2018-08-17T13:37:04.510Z,10.40
2018-08-17T13:39:33.228Z,7.60
2018-08-17T13:42:06.217Z,9.93
2018-08-17T13:44:34.750Z,6.97
2018-08-17T13:47:08.498Z,9.93
2018-08-17T13:49:36.634Z,10.03
2018-08-17T13:52:10.651Z,7.13
2018-08-17T13:54:39.388Z,8.37
2018-08-17T13:57:14.754Z,8.50
2018-08-17T13:59:42.967Z,9.07
2018-08-17T14:02:17.809Z,7.53
2018-08-17T14:04:46.027Z,9.63
2018-08-17T14:07:19.058Z,9.63
2018-08-17T14:09:47.589Z,10.77
2018-08-17T14:12:20.446Z,8.93
2018-08-17T14:14:48.651Z,9.90
2018-08-17T14:17:22.460Z,7.83
2018-08-17T14:19:50.609Z,8.00
2018-08-17T14:22:23.718Z,8.93
2018-08-17T14:24:51.804Z,8.23
2018-08-17T14:27:27.318Z,10.87
2018-08-17T14:29:55.420Z,6.03
2018-08-17T14:32:28.104Z,8.87
2018-08-17T14:34:56.244Z,9.60
2018-08-17T14:37:24.365Z,9.77
2018-08-17T14:39:53.483Z,8.43
2018-08-17T14:42:21.593Z,12.13
2018-08-17T14:44:49.967Z,9.00
2018-08-17T14:47:18.525Z,7.87
2018-08-17T14:49:46.639Z,5.60
2018-08-17T14:52:15.094Z,7.23
2018-08-17T14:54:45.689Z,5.93
2018-08-17T14:57:14.313Z,8.00
2018-08-17T14:59:44.443Z,8.43
2018-08-17T15:02:12.863Z,9.20
2018-08-17T15:04:46.729Z,8.93
2018-08-17T15:07:14.896Z,10.37
2018-08-17T15:09:48.973Z,10.13
2018-08-17T15:12:17.567Z,10.33
2018-08-17T15:14:51.892Z,8.70
2018-08-17T15:17:20.306Z,12.27
2018-08-17T15:19:53.114Z,11.73
2018-08-17T15:22:22.004Z,14.43
2018-08-17T15:24:56.328Z,7.87
2018-08-17T15:27:24.793Z,10.73
2018-08-17T15:32:26.537Z,8.33
2018-08-17T15:34:54.704Z,8.23
2018-08-17T15:37:23.106Z,9.07
2018-08-17T15:39:51.246Z,8.23
2018-08-17T15:42:19.398Z,9.03
2018-08-17T15:44:47.828Z,8.53
2018-08-17T15:47:16.012Z,7.37
2018-08-17T15:49:49.728Z,10.77
2018-08-17T15:52:18.131Z,9.33
2018-08-17T15:54:46.286Z,6.50
2018-08-17T15:57:15.836Z,9.93
2018-08-17T15:59:44.412Z,7.80
2018-08-17T16:02:18.553Z,6.37
2018-08-17T16:04:46.770Z,7.17
2018-08-17T16:07:20.860Z,10.17
2018-08-17T16:09:49.358Z,5.90
2018-08-17T16:12:21.894Z,9.23
2018-08-17T16:14:50.397Z,6.90
2018-08-17T16:17:24.807Z,8.87
2018-08-17T16:19:52.966Z,7.07
2018-08-17T16:22:27.499Z,6.23
2018-08-17T16:24:55.681Z,5.70
2018-08-17T16:27:30.375Z,5.67
2018-08-17T16:29:58.892Z,4.63
2018-08-17T16:32:32.921Z,5.23
2018-08-17T16:35:01.921Z,7.43
2018-08-17T16:37:34.969Z,4.90
2018-08-17T16:40:03.154Z,6.40
2018-08-17T16:43:40.356Z,6.43
2018-08-17T16:46:08.467Z,9.23
2018-08-17T16:48:42.618Z,4.83
2018-08-17T16:51:11.266Z,6.23
2018-08-17T16:53:42.932Z,4.87
2018-08-17T16:56:11.338Z,8.77
2018-08-17T16:58:44.620Z,7.30
2018-08-17T17:01:12.736Z,7.13
2018-08-17T17:03:46.050Z,6.33
2018-08-17T17:06:14.156Z,8.20
2018-08-17T17:08:42.375Z,6.10
2018-08-17T17:11:11.304Z,6.00
2018-08-17T17:13:40.717Z,6.67
2018-08-17T17:16:09.388Z,5.20
2018-08-17T17:18:37.877Z,9.70
2018-08-17T17:21:06.499Z,5.47
2018-08-17T17:23:39.110Z,6.83
2018-08-17T17:26:07.613Z,7.67
2018-08-17T17:28:35.712Z,5.47
2018-08-17T17:31:05.757Z,6.60
2018-08-17T17:33:34.206Z,8.10
2018-08-17T17:36:07.151Z,5.10
2018-08-17T17:38:35.313Z,6.93
2018-08-17T17:41:09.236Z,5.53
2018-08-17T17:43:37.352Z,5.73
2018-08-17T17:46:11.840Z,4.23
2018-08-17T17:48:40.473Z,6.60
2018-08-17T17:51:17.829Z,5.30
2018-08-17T17:53:45.945Z,9.27
2018-08-17T17:56:17.686Z,7.73
2018-08-17T17:58:45.836Z,5.70
2018-08-17T18:01:20.461Z,9.53
2018-08-17T18:03:48.882Z,9.57
2018-08-17T18:06:25.816Z,5.27
2018-08-17T18:08:54.034Z,7.27
2018-08-17T18:11:23.527Z,7.47
2018-08-17T18:13:53.223Z,9.27
2018-08-17T18:16:26.460Z,6.40
2018-08-17T18:18:54.633Z,8.43
2018-08-17T18:21:29.543Z,5.70
2018-08-17T18:24:02.803Z,4.50
2018-08-17T18:26:31.486Z,5.93
2018-08-17T18:29:00.031Z,7.67
2018-08-17T18:31:34.340Z,6.67
2018-08-17T18:34:02.804Z,5.50
2018-08-17T18:36:36.560Z,8.47
2018-08-17T18:39:09.056Z,6.13
2018-08-17T18:41:39.095Z,4.70
2018-08-17T18:44:07.347Z,8.53
2018-08-17T18:46:42.204Z,4.97
2018-08-17T18:49:10.261Z,9.80
2018-08-17T18:51:43.377Z,9.93
2018-08-17T18:54:12.282Z,7.60
2018-08-17T18:56:45.686Z,7.00
2018-08-17T18:59:14.263Z,8.37
2018-08-17T19:01:47.657Z,8.00
2018-08-17T19:04:15.795Z,10.53
2018-08-17T19:06:51.584Z,5.70
2018-08-17T19:09:20.266Z,7.70
2018-08-17T19:11:56.965Z,12.47
2018-08-17T19:14:25.076Z,7.37
2018-08-17T19:16:56.659Z,9.37
2018-08-17T19:19:24.776Z,6.87
2018-08-17T19:21:58.391Z,6.17
2018-08-17T19:24:26.823Z,5.30
2018-08-17T19:29:36.453Z,8.90
2018-08-17T19:32:05.076Z,7.50
2018-08-17T19:34:33.173Z,7.43
2018-08-17T19:37:07.093Z,10.80
2018-08-17T19:39:35.492Z,7.00
2018-08-17T19:42:08.842Z,8.87
2018-08-17T19:44:37.047Z,7.27
2018-08-17T19:47:10.226Z,9.13
2018-08-17T19:49:40.117Z,9.30
2018-08-17T19:52:13.279Z,5.73
2018-08-17T19:54:41.809Z,8.07
2018-08-17T19:57:09.963Z,6.80
2018-08-17T19:59:38.230Z,10.13
2018-08-17T20:02:07.006Z,6.90
2018-08-17T20:04:35.230Z,4.87
2018-08-17T20:07:03.415Z,7.40
2018-08-17T20:09:31.912Z,8.17
2018-08-17T20:12:00.010Z,8.40
2018-08-17T20:14:28.239Z,11.43
2018-08-17T20:16:57.080Z,7.53
2018-08-17T20:19:35.438Z,10.30
2018-08-17T20:22:03.896Z,9.70
2018-08-17T20:24:33.633Z,11.97
2018-08-17T20:27:01.924Z,6.60
2018-08-17T20:29:33.909Z,11.90
2018-08-17T20:32:02.099Z,6.90
2018-08-17T20:34:36.610Z,9.47
2018-08-17T20:37:05.173Z,9.77
2018-08-17T20:39:39.251Z,8.80
2018-08-17T20:42:07.839Z,11.10
2018-08-17T20:44:42.064Z,9.43
2018-08-17T20:47:11.553Z,9.73
2018-08-17T20:49:44.902Z,11.03
2018-08-17T20:52:13.046Z,9.23
2018-08-17T20:54:47.026Z,6.90
2018-08-17T20:57:15.549Z,7.03
2018-08-17T20:59:49.264Z,7.10
2018-08-17T21:02:17.475Z,9.77
2018-08-17T21:04:45.728Z,9.00
2018-08-17T21:07:14.019Z,11.20
2018-08-17T21:09:42.479Z,8.17
2018-08-17T21:12:10.679Z,8.43
2018-08-17T21:14:38.829Z,13.20
2018-08-17T21:17:08.337Z,8.17
2018-08-17T21:19:39.978Z,7.17
2018-08-17T21:22:08.813Z,9.07
2018-08-17T21:24:38.228Z,8.53
2018-08-17T21:27:06.993Z,5.70
2018-08-17T21:29:35.425Z,8.77
2018-08-17T21:32:12.089Z,10.57
2018-08-17T21:34:40.236Z,8.30
2018-08-17T21:37:11.649Z,7.33
2018-08-17T21:39:40.107Z,8.47
2018-08-17T21:42:13.147Z,13.23
2018-08-17T21:44:41.346Z,10.67
2018-08-17T21:47:14.844Z,11.13
2018-08-17T21:49:43.864Z,11.30
2018-08-17T21:52:23.299Z,11.20
2018-08-17T21:54:51.733Z,9.60
2018-08-17T21:57:20.412Z,9.43
2018-08-17T21:59:50.543Z,10.30
2018-08-17T22:02:23.396Z,16.47
2018-08-17T22:04:51.759Z,8.97
2018-08-17T22:07:25.272Z,12.17
2018-08-17T22:09:54.473Z,12.60
2018-08-17T22:12:31.524Z,13.40
2018-08-17T22:14:59.849Z,10.53
2018-08-17T22:17:32.071Z,8.43
2018-08-17T22:20:00.464Z,11.93
2018-08-17T22:22:32.645Z,8.43
2018-08-17T22:25:02.323Z,11.53
2018-08-17T22:27:34.759Z,10.47
2018-08-17T22:30:02.916Z,12.90
2018-08-17T22:32:35.352Z,13.03
2018-08-17T22:35:05.383Z,17.03
2018-08-17T22:37:38.242Z,14.87
2018-08-17T22:40:06.400Z,10.50
2018-08-17T22:42:34.552Z,11.77
2018-08-17T22:45:02.859Z,12.97
2018-08-17T22:47:31.459Z,10.73
2018-08-17T22:50:00.612Z,11.77
2018-08-17T22:52:31.834Z,11.43
2018-08-17T22:55:01.662Z,9.43
2018-08-17T22:57:30.482Z,12.20
2018-08-17T23:00:12.063Z,11.03
2018-08-17T23:02:41.741Z,12.13
2018-08-17T23:05:10.672Z,9.67
2018-08-17T23:09:59.185Z,12.23
2018-08-17T23:12:27.349Z,12.23
2018-08-17T23:14:59.402Z,12.90
2018-08-17T23:17:27.793Z,9.43
2018-08-17T23:20:01.325Z,6.97
2018-08-17T23:22:29.462Z,14.67
2018-08-17T23:24:58.660Z,10.30
2018-08-17T23:27:28.114Z,9.07
2018-08-17T23:29:56.222Z,12.83
2018-08-17T23:32:24.638Z,8.87
2018-08-17T23:34:52.752Z,11.50
2018-08-17T23:37:20.880Z,10.43
2018-08-17T23:39:49.260Z,15.53
2018-08-17T23:42:17.409Z,10.40
2018-08-17T23:44:45.536Z,11.33
2018-08-17T23:47:16.928Z,10.33
2018-08-17T23:49:45.024Z,7.27
2018-08-17T23:52:18.235Z,9.00
2018-08-17T23:54:46.372Z,10.83
2018-08-17T23:59:47.288Z,8.90
